sensor_id;sensor_type;location;lat;lon;timestamp;P1;durP1;ratioP1;P2;durP2;ratioP2
64957;SDS011;51486;50.232;19.208;2023-12-20T00:00:52;11.63;;;3.50;;
64957;SDS011;51486;50.232;19.208;2023-12-20T00:03:17;5.33;;;2.87;;
64957;SDS011;51486;50.232;19.208;2023-12-20T00:05:42;4.97;;;2.37;;
64957;SDS011;51486;50.232;19.208;2023-12-20T00:08:08;4.97;;;2.57;;
64957;SDS011;51486;50.232;19.208;2023-12-20T00:10:33;5.83;;;2.13;;
64957;SDS011;51486;50.232;19.208;2023-12-20T00:12:59;10.77;;;2.60;;
64957;SDS011;51486;50.232;19.208;2023-12-20T00:15:24;5.23;;;2.97;;
64957;SDS011;51486;50.232;19.208;2023-12-20T00:17:49;4.77;;;2.70;;
64957;SDS011;51486;50.232;19.208;2023-12-20T00:20:15;7.60;;;2.70;;
64957;SDS011;51486;50.232;19.208;2023-12-20T00:22:40;8.43;;;3.73;;
64957;SDS011;51486;50.232;19.208;2023-12-20T00:25:06;5.00;;;2.70;;
64957;SDS011;51486;50.232;19.208;2023-12-20T00:27:32;7.57;;;3.07;;
64957;SDS011;51486;50.232;19.208;2023-12-20T00:29:57;8.47;;;2.90;;
64957;SDS011;51486;50.232;19.208;2023-12-20T00:32:23;3.73;;;2.13;;
64957;SDS011;51486;50.232;19.208;2023-12-20T00:34:48;6.83;;;2.60;;
64957;SDS011;51486;50.232;19.208;2023-12-20T00:37:14;4.17;;;2.50;;
64957;SDS011;51486;50.232;19.208;2023-12-20T00:39:39;8.60;;;2.63;;
64957;SDS011;51486;50.232;19.208;2023-12-20T00:42:04;6.93;;;3.10;;
64957;SDS011;51486;50.232;19.208;2023-12-20T00:44:30;5.67;;;2.13;;
64957;SDS011;51486;50.232;19.208;2023-12-20T00:46:55;6.03;;;2.20;;
64957;SDS011;51486;50.232;19.208;2023-12-20T00:49:20;5.70;;;2.53;;
64957;SDS011;51486;50.232;19.208;2023-12-20T00:51:46;6.30;;;2.60;;
64957;SDS011;51486;50.232;19.208;2023-12-20T00:54:12;3.37;;;2.17;;
64957;SDS011;51486;50.232;19.208;2023-12-20T00:56:38;4.67;;;2.10;;
64957;SDS011;51486;50.232;19.208;2023-12-20T00:59:04;3.93;;;2.40;;
64957;SDS011;51486;50.232;19.208;2023-12-20T01:01:29;4.43;;;2.77;;
64957;SDS011;51486;50.232;19.208;2023-12-20T01:03:54;4.00;;;2.50;;
64957;SDS011;51486;50.232;19.208;2023-12-20T01:06:20;3.37;;;2.40;;
64957;SDS011;51486;50.232;19.208;2023-12-20T01:08:45;4.40;;;2.70;;
64957;SDS011;51486;50.232;19.208;2023-12-20T01:11:11;4.70;;;2.20;;
64957;SDS011;51486;50.232;19.208;2023-12-20T01:13:36;4.67;;;2.13;;
64957;SDS011;51486;50.232;19.208;2023-12-20T01:16:02;3.83;;;2.33;;
64957;SDS011;51486;50.232;19.208;2023-12-20T01:18:27;2.70;;;2.10;;
64957;SDS011;51486;50.232;19.208;2023-12-20T01:20:53;3.90;;;2.30;;
64957;SDS011;51486;50.232;19.208;2023-12-20T01:23:19;3.33;;;2.13;;
64957;SDS011;51486;50.232;19.208;2023-12-20T01:25:44;5.20;;;2.37;;
64957;SDS011;51486;50.232;19.208;2023-12-20T01:28:09;5.33;;;2.23;;
64957;SDS011;51486;50.232;19.208;2023-12-20T01:30:35;4.87;;;2.07;;
64957;SDS011;51486;50.232;19.208;2023-12-20T01:33:00;4.47;;;2.63;;
64957;SDS011;51486;50.232;19.208;2023-12-20T01:35:26;3.37;;;2.30;;
64957;SDS011;51486;50.232;19.208;2023-12-20T01:37:51;7.70;;;3.47;;
64957;SDS011;51486;50.232;19.208;2023-12-20T01:40:17;5.23;;;3.07;;
64957;SDS011;51486;50.232;19.208;2023-12-20T01:42:44;7.80;;;3.77;;
64957;SDS011;51486;50.232;19.208;2023-12-20T01:45:10;6.77;;;3.03;;
64957;SDS011;51486;50.232;19.208;2023-12-20T01:47:35;7.80;;;3.40;;
64957;SDS011;51486;50.232;19.208;2023-12-20T01:50:01;4.87;;;3.47;;
64957;SDS011;51486;50.232;19.208;2023-12-20T01:52:28;8.97;;;2.30;;
64957;SDS011;51486;50.232;19.208;2023-12-20T01:54:54;6.07;;;2.50;;
64957;SDS011;51486;50.232;19.208;2023-12-20T01:57:26;4.70;;;2.73;;
64957;SDS011;51486;50.232;19.208;2023-12-20T01:59:52;4.87;;;2.57;;
64957;SDS011;51486;50.232;19.208;2023-12-20T02:02:17;5.57;;;3.20;;
64957;SDS011;51486;50.232;19.208;2023-12-20T02:04:43;4.03;;;2.70;;
64957;SDS011;51486;50.232;19.208;2023-12-20T02:07:08;5.43;;;2.73;;
64957;SDS011;51486;50.232;19.208;2023-12-20T02:09:34;6.57;;;3.20;;
64957;SDS011;51486;50.232;19.208;2023-12-20T02:12:00;4.10;;;2.73;;
64957;SDS011;51486;50.232;19.208;2023-12-20T02:14:25;9.03;;;3.10;;
64957;SDS011;51486;50.232;19.208;2023-12-20T02:16:51;4.70;;;2.53;;
64957;SDS011;51486;50.232;19.208;2023-12-20T02:19:16;6.07;;;2.93;;
64957;SDS011;51486;50.232;19.208;2023-12-20T02:21:42;5.60;;;2.90;;
64957;SDS011;51486;50.232;19.208;2023-12-20T02:24:08;6.27;;;3.00;;
64957;SDS011;51486;50.232;19.208;2023-12-20T02:26:33;6.20;;;2.80;;
64957;SDS011;51486;50.232;19.208;2023-12-20T02:28:59;6.77;;;2.47;;
64957;SDS011;51486;50.232;19.208;2023-12-20T02:31:24;4.93;;;2.37;;
64957;SDS011;51486;50.232;19.208;2023-12-20T02:33:50;5.07;;;2.23;;
64957;SDS011;51486;50.232;19.208;2023-12-20T02:36:15;4.83;;;3.03;;
64957;SDS011;51486;50.232;19.208;2023-12-20T02:38:41;5.53;;;3.27;;
64957;SDS011;51486;50.232;19.208;2023-12-20T02:41:06;5.40;;;2.60;;
64957;SDS011;51486;50.232;19.208;2023-12-20T02:43:32;6.83;;;3.37;;
64957;SDS011;51486;50.232;19.208;2023-12-20T02:45:57;8.27;;;3.40;;
64957;SDS011;51486;50.232;19.208;2023-12-20T02:48:22;8.57;;;3.63;;
64957;SDS011;51486;50.232;19.208;2023-12-20T02:50:48;6.63;;;3.33;;
64957;SDS011;51486;50.232;19.208;2023-12-20T02:53:14;6.80;;;3.73;;
64957;SDS011;51486;50.232;19.208;2023-12-20T02:55:39;9.17;;;3.07;;
64957;SDS011;51486;50.232;19.208;2023-12-20T02:58:05;5.07;;;3.10;;
64957;SDS011;51486;50.232;19.208;2023-12-20T03:00:30;18.53;;;4.10;;
64957;SDS011;51486;50.232;19.208;2023-12-20T03:02:56;7.77;;;4.03;;
64957;SDS011;51486;50.232;19.208;2023-12-20T03:05:21;10.97;;;4.67;;
64957;SDS011;51486;50.232;19.208;2023-12-20T03:07:46;10.40;;;3.90;;
64957;SDS011;51486;50.232;19.208;2023-12-20T03:10:12;11.80;;;4.80;;
64957;SDS011;51486;50.232;19.208;2023-12-20T03:12:37;5.47;;;2.73;;
64957;SDS011;51486;50.232;19.208;2023-12-20T03:15:03;9.10;;;4.00;;
64957;SDS011;51486;50.232;19.208;2023-12-20T03:17:28;6.03;;;3.00;;
64957;SDS011;51486;50.232;19.208;2023-12-20T03:19:53;7.50;;;2.87;;
64957;SDS011;51486;50.232;19.208;2023-12-20T03:22:19;5.20;;;2.73;;
64957;SDS011;51486;50.232;19.208;2023-12-20T03:24:44;7.17;;;3.63;;
64957;SDS011;51486;50.232;19.208;2023-12-20T03:27:09;7.47;;;3.23;;
64957;SDS011;51486;50.232;19.208;2023-12-20T03:29:35;7.37;;;2.90;;
64957;SDS011;51486;50.232;19.208;2023-12-20T03:32:00;4.67;;;2.90;;
64957;SDS011;51486;50.232;19.208;2023-12-20T03:34:26;6.63;;;3.70;;
64957;SDS011;51486;50.232;19.208;2023-12-20T03:36:51;10.07;;;3.13;;
64957;SDS011;51486;50.232;19.208;2023-12-20T03:39:17;9.13;;;3.83;;
64957;SDS011;51486;50.232;19.208;2023-12-20T03:41:42;7.60;;;3.67;;
64957;SDS011;51486;50.232;19.208;2023-12-20T03:44:08;6.80;;;3.53;;
64957;SDS011;51486;50.232;19.208;2023-12-20T03:46:33;7.97;;;3.97;;
64957;SDS011;51486;50.232;19.208;2023-12-20T03:48:58;9.20;;;4.50;;
64957;SDS011;51486;50.232;19.208;2023-12-20T03:51:24;8.57;;;4.20;;
64957;SDS011;51486;50.232;19.208;2023-12-20T03:53:49;8.90;;;3.63;;
64957;SDS011;51486;50.232;19.208;2023-12-20T03:56:14;9.67;;;4.33;;
64957;SDS011;51486;50.232;19.208;2023-12-20T03:58:40;7.70;;;4.13;;
64957;SDS011;51486;50.232;19.208;2023-12-20T04:01:14;10.10;;;3.73;;
64957;SDS011;51486;50.232;19.208;2023-12-20T04:03:39;9.77;;;4.40;;
64957;SDS011;51486;50.232;19.208;2023-12-20T04:06:05;7.07;;;3.73;;
64957;SDS011;51486;50.232;19.208;2023-12-20T04:08:30;9.07;;;4.00;;
64957;SDS011;51486;50.232;19.208;2023-12-20T04:10:56;8.80;;;4.47;;
64957;SDS011;51486;50.232;19.208;2023-12-20T04:13:21;8.77;;;4.40;;
64957;SDS011;51486;50.232;19.208;2023-12-20T04:15:47;8.40;;;3.77;;
64957;SDS011;51486;50.232;19.208;2023-12-20T04:18:13;6.43;;;4.03;;
64957;SDS011;51486;50.232;19.208;2023-12-20T04:20:38;7.57;;;4.50;;
64957;SDS011;51486;50.232;19.208;2023-12-20T04:23:03;9.37;;;4.63;;
64957;SDS011;51486;50.232;19.208;2023-12-20T04:25:29;9.33;;;4.30;;
64957;SDS011;51486;50.232;19.208;2023-12-20T04:27:54;11.23;;;4.10;;
64957;SDS011;51486;50.232;19.208;2023-12-20T04:30:19;6.27;;;3.40;;
64957;SDS011;51486;50.232;19.208;2023-12-20T04:32:45;8.43;;;4.73;;
64957;SDS011;51486;50.232;19.208;2023-12-20T04:35:10;9.90;;;4.47;;
64957;SDS011;51486;50.232;19.208;2023-12-20T04:37:35;11.97;;;4.80;;
64957;SDS011;51486;50.232;19.208;2023-12-20T04:40:01;9.70;;;4.67;;
64957;SDS011;51486;50.232;19.208;2023-12-20T04:42:26;9.87;;;3.90;;
64957;SDS011;51486;50.232;19.208;2023-12-20T04:44:52;18.93;;;4.63;;
64957;SDS011;51486;50.232;19.208;2023-12-20T04:47:17;18.63;;;5.23;;
64957;SDS011;51486;50.232;19.208;2023-12-20T04:49:42;9.27;;;5.13;;
64957;SDS011;51486;50.232;19.208;2023-12-20T04:52:08;12.00;;;4.77;;
64957;SDS011;51486;50.232;19.208;2023-12-20T04:54:33;9.33;;;4.70;;
64957;SDS011;51486;50.232;19.208;2023-12-20T04:56:58;10.60;;;5.07;;
64957;SDS011;51486;50.232;19.208;2023-12-20T04:59:24;9.40;;;5.10;;
64957;SDS011;51486;50.232;19.208;2023-12-20T05:01:49;10.57;;;5.50;;
64957;SDS011;51486;50.232;19.208;2023-12-20T05:04:15;20.13;;;5.90;;
64957;SDS011;51486;50.232;19.208;2023-12-20T05:06:40;12.47;;;5.60;;
64957;SDS011;51486;50.232;19.208;2023-12-20T05:09:06;12.50;;;5.50;;
64957;SDS011;51486;50.232;19.208;2023-12-20T05:11:31;17.93;;;6.13;;
64957;SDS011;51486;50.232;19.208;2023-12-20T05:13:56;14.10;;;6.40;;
64957;SDS011;51486;50.232;19.208;2023-12-20T05:16:22;15.23;;;6.73;;
64957;SDS011;51486;50.232;19.208;2023-12-20T05:18:48;20.17;;;7.17;;
64957;SDS011;51486;50.232;19.208;2023-12-20T05:21:15;13.57;;;7.17;;
64957;SDS011;51486;50.232;19.208;2023-12-20T05:23:40;15.23;;;6.57;;
64957;SDS011;51486;50.232;19.208;2023-12-20T05:26:06;14.07;;;7.20;;
64957;SDS011;51486;50.232;19.208;2023-12-20T05:28:31;15.17;;;7.07;;
64957;SDS011;51486;50.232;19.208;2023-12-20T05:30:56;18.53;;;7.37;;
64957;SDS011;51486;50.232;19.208;2023-12-20T05:33:22;20.33;;;7.40;;
64957;SDS011;51486;50.232;19.208;2023-12-20T05:35:48;17.87;;;7.30;;
64957;SDS011;51486;50.232;19.208;2023-12-20T05:38:13;13.90;;;7.07;;
64957;SDS011;51486;50.232;19.208;2023-12-20T05:40:38;20.00;;;8.30;;
64957;SDS011;51486;50.232;19.208;2023-12-20T05:43:04;28.00;;;11.90;;
64957;SDS011;51486;50.232;19.208;2023-12-20T05:45:29;21.53;;;9.00;;
64957;SDS011;51486;50.232;19.208;2023-12-20T05:47:54;24.70;;;10.90;;
64957;SDS011;51486;50.232;19.208;2023-12-20T05:50:20;30.60;;;12.17;;
64957;SDS011;51486;50.232;19.208;2023-12-20T05:52:46;23.97;;;10.37;;
64957;SDS011;51486;50.232;19.208;2023-12-20T05:55:11;17.43;;;8.97;;
64957;SDS011;51486;50.232;19.208;2023-12-20T05:57:37;15.50;;;7.60;;
64957;SDS011;51486;50.232;19.208;2023-12-20T06:00:02;13.50;;;7.17;;
64957;SDS011;51486;50.232;19.208;2023-12-20T06:02:28;14.90;;;7.80;;
64957;SDS011;51486;50.232;19.208;2023-12-20T06:04:54;14.30;;;7.17;;
64957;SDS011;51486;50.232;19.208;2023-12-20T06:07:19;18.20;;;8.37;;
64957;SDS011;51486;50.232;19.208;2023-12-20T06:09:45;23.73;;;8.63;;
64957;SDS011;51486;50.232;19.208;2023-12-20T06:12:11;13.47;;;7.50;;
64957;SDS011;51486;50.232;19.208;2023-12-20T06:14:36;13.00;;;6.70;;
64957;SDS011;51486;50.232;19.208;2023-12-20T06:17:02;17.73;;;7.87;;
64957;SDS011;51486;50.232;19.208;2023-12-20T06:19:27;15.73;;;7.17;;
64957;SDS011;51486;50.232;19.208;2023-12-20T06:21:53;14.93;;;6.87;;
64957;SDS011;51486;50.232;19.208;2023-12-20T06:24:18;15.90;;;7.10;;
64957;SDS011;51486;50.232;19.208;2023-12-20T06:26:44;14.17;;;7.17;;
64957;SDS011;51486;50.232;19.208;2023-12-20T06:29:09;14.97;;;6.37;;
64957;SDS011;51486;50.232;19.208;2023-12-20T06:31:34;12.40;;;6.20;;
64957;SDS011;51486;50.232;19.208;2023-12-20T06:34:00;12.07;;;7.07;;
64957;SDS011;51486;50.232;19.208;2023-12-20T06:36:28;18.17;;;7.40;;
64957;SDS011;51486;50.232;19.208;2023-12-20T06:38:54;16.93;;;6.40;;
64957;SDS011;51486;50.232;19.208;2023-12-20T06:41:19;18.10;;;6.57;;
64957;SDS011;51486;50.232;19.208;2023-12-20T06:43:44;15.43;;;6.93;;
64957;SDS011;51486;50.232;19.208;2023-12-20T06:46:10;15.50;;;8.33;;
64957;SDS011;51486;50.232;19.208;2023-12-20T06:48:35;19.97;;;9.27;;
64957;SDS011;51486;50.232;19.208;2023-12-20T06:51:01;19.83;;;8.70;;
64957;SDS011;51486;50.232;19.208;2023-12-20T06:53:29;16.63;;;7.63;;
64957;SDS011;51486;50.232;19.208;2023-12-20T06:55:55;19.17;;;7.97;;
64957;SDS011;51486;50.232;19.208;2023-12-20T06:58:23;24.63;;;11.90;;
64957;SDS011;51486;50.232;19.208;2023-12-20T07:00:50;19.20;;;8.73;;
64957;SDS011;51486;50.232;19.208;2023-12-20T07:03:16;17.97;;;8.87;;
64957;SDS011;51486;50.232;19.208;2023-12-20T07:05:42;14.47;;;7.97;;
64957;SDS011;51486;50.232;19.208;2023-12-20T07:08:07;12.23;;;7.17;;
64957;SDS011;51486;50.232;19.208;2023-12-20T07:10:32;17.53;;;9.00;;
64957;SDS011;51486;50.232;19.208;2023-12-20T07:12:58;16.73;;;7.90;;
64957;SDS011;51486;50.232;19.208;2023-12-20T07:15:23;16.10;;;7.57;;
64957;SDS011;51486;50.232;19.208;2023-12-20T07:17:49;16.17;;;7.70;;
64957;SDS011;51486;50.232;19.208;2023-12-20T07:20:14;16.53;;;7.17;;
64957;SDS011;51486;50.232;19.208;2023-12-20T07:22:40;15.87;;;7.77;;
64957;SDS011;51486;50.232;19.208;2023-12-20T07:25:05;16.23;;;7.63;;
64957;SDS011;51486;50.232;19.208;2023-12-20T07:27:31;15.37;;;6.67;;
64957;SDS011;51486;50.232;19.208;2023-12-20T07:29:57;16.40;;;7.63;;
64957;SDS011;51486;50.232;19.208;2023-12-20T07:32:22;16.17;;;7.43;;
64957;SDS011;51486;50.232;19.208;2023-12-20T07:34:47;12.47;;;6.17;;
64957;SDS011;51486;50.232;19.208;2023-12-20T07:37:13;15.00;;;7.17;;
64957;SDS011;51486;50.232;19.208;2023-12-20T07:39:41;17.50;;;8.07;;
64957;SDS011;51486;50.232;19.208;2023-12-20T07:42:07;19.03;;;9.10;;
64957;SDS011;51486;50.232;19.208;2023-12-20T07:44:33;21.77;;;9.40;;
64957;SDS011;51486;50.232;19.208;2023-12-20T07:47:00;14.83;;;7.47;;
64957;SDS011;51486;50.232;19.208;2023-12-20T07:49:26;18.40;;;8.10;;
64957;SDS011;51486;50.232;19.208;2023-12-20T07:51:52;18.23;;;8.67;;
64957;SDS011;51486;50.232;19.208;2023-12-20T07:54:17;18.30;;;8.97;;
64957;SDS011;51486;50.232;19.208;2023-12-20T07:56:42;14.20;;;8.53;;
64957;SDS011;51486;50.232;19.208;2023-12-20T07:59:08;17.30;;;9.40;;
64957;SDS011;51486;50.232;19.208;2023-12-20T08:01:34;15.27;;;8.20;;
64957;SDS011;51486;50.232;19.208;2023-12-20T08:03:59;19.57;;;9.50;;
64957;SDS011;51486;50.232;19.208;2023-12-20T08:06:24;22.03;;;10.00;;
64957;SDS011;51486;50.232;19.208;2023-12-20T08:08:50;19.67;;;8.40;;
64957;SDS011;51486;50.232;19.208;2023-12-20T08:11:15;16.07;;;8.93;;
64957;SDS011;51486;50.232;19.208;2023-12-20T08:13:41;18.17;;;8.90;;
64957;SDS011;51486;50.232;19.208;2023-12-20T08:16:06;22.93;;;10.47;;
64957;SDS011;51486;50.232;19.208;2023-12-20T08:18:32;23.37;;;11.17;;
64957;SDS011;51486;50.232;19.208;2023-12-20T08:20:57;19.17;;;9.17;;
64957;SDS011;51486;50.232;19.208;2023-12-20T08:23:22;18.77;;;8.57;;
64957;SDS011;51486;50.232;19.208;2023-12-20T08:25:48;15.87;;;7.80;;
64957;SDS011;51486;50.232;19.208;2023-12-20T08:28:14;20.20;;;8.53;;
64957;SDS011;51486;50.232;19.208;2023-12-20T08:30:39;21.63;;;9.70;;
64957;SDS011;51486;50.232;19.208;2023-12-20T08:33:06;16.70;;;7.40;;
64957;SDS011;51486;50.232;19.208;2023-12-20T08:35:36;23.30;;;8.43;;
64957;SDS011;51486;50.232;19.208;2023-12-20T08:38:01;18.13;;;8.90;;
64957;SDS011;51486;50.232;19.208;2023-12-20T08:40:29;18.07;;;8.80;;
64957;SDS011;51486;50.232;19.208;2023-12-20T08:42:54;17.17;;;8.20;;
64957;SDS011;51486;50.232;19.208;2023-12-20T08:45:20;18.47;;;8.17;;
64957;SDS011;51486;50.232;19.208;2023-12-20T08:47:45;18.33;;;7.97;;
64957;SDS011;51486;50.232;19.208;2023-12-20T08:50:11;15.77;;;8.10;;
64957;SDS011;51486;50.232;19.208;2023-12-20T08:52:36;15.10;;;8.77;;
64957;SDS011;51486;50.232;19.208;2023-12-20T08:55:02;17.90;;;9.00;;
64957;SDS011;51486;50.232;19.208;2023-12-20T08:57:27;18.87;;;8.87;;
64957;SDS011;51486;50.232;19.208;2023-12-20T08:59:53;15.90;;;7.93;;
64957;SDS011;51486;50.232;19.208;2023-12-20T09:02:18;18.57;;;8.10;;
64957;SDS011;51486;50.232;19.208;2023-12-20T09:04:44;17.83;;;8.90;;
64957;SDS011;51486;50.232;19.208;2023-12-20T09:07:25;24.20;;;9.45;;
64957;SDS011;51486;50.232;19.208;2023-12-20T09:09:51;21.70;;;8.73;;
64957;SDS011;51486;50.232;19.208;2023-12-20T09:12:17;19.77;;;7.80;;
64957;SDS011;51486;50.232;19.208;2023-12-20T09:14:44;18.43;;;8.33;;
64957;SDS011;51486;50.232;19.208;2023-12-20T09:17:10;21.70;;;10.50;;
64957;SDS011;51486;50.232;19.208;2023-12-20T09:19:37;14.07;;;8.00;;
64957;SDS011;51486;50.232;19.208;2023-12-20T09:22:02;16.67;;;8.60;;
64957;SDS011;51486;50.232;19.208;2023-12-20T09:24:28;23.67;;;8.00;;
64957;SDS011;51486;50.232;19.208;2023-12-20T09:26:54;18.43;;;8.70;;
64957;SDS011;51486;50.232;19.208;2023-12-20T09:29:21;14.63;;;7.67;;
64957;SDS011;51486;50.232;19.208;2023-12-20T09:31:46;17.73;;;7.97;;
64957;SDS011;51486;50.232;19.208;2023-12-20T09:34:13;18.43;;;7.97;;
64957;SDS011;51486;50.232;19.208;2023-12-20T09:36:39;18.13;;;7.63;;
64957;SDS011;51486;50.232;19.208;2023-12-20T09:39:11;20.17;;;8.40;;
64957;SDS011;51486;50.232;19.208;2023-12-20T09:41:37;20.93;;;8.57;;
64957;SDS011;51486;50.232;19.208;2023-12-20T09:44:07;20.47;;;8.20;;
64957;SDS011;51486;50.232;19.208;2023-12-20T09:46:34;16.20;;;8.57;;
64957;SDS011;51486;50.232;19.208;2023-12-20T09:49:01;16.03;;;8.27;;
64957;SDS011;51486;50.232;19.208;2023-12-20T09:51:27;18.17;;;8.00;;
64957;SDS011;51486;50.232;19.208;2023-12-20T09:53:54;18.23;;;8.53;;
64957;SDS011;51486;50.232;19.208;2023-12-20T09:56:20;16.90;;;9.47;;
64957;SDS011;51486;50.232;19.208;2023-12-20T09:58:46;20.20;;;8.77;;
64957;SDS011;51486;50.232;19.208;2023-12-20T10:01:12;17.93;;;8.93;;
64957;SDS011;51486;50.232;19.208;2023-12-20T10:03:37;18.77;;;9.27;;
64957;SDS011;51486;50.232;19.208;2023-12-20T10:06:05;22.70;;;11.03;;
64957;SDS011;51486;50.232;19.208;2023-12-20T10:08:31;25.17;;;11.23;;
64957;SDS011;51486;50.232;19.208;2023-12-20T10:10:57;19.80;;;9.70;;
64957;SDS011;51486;50.232;19.208;2023-12-20T10:13:27;19.97;;;9.33;;
64957;SDS011;51486;50.232;19.208;2023-12-20T10:15:54;19.80;;;10.03;;
64957;SDS011;51486;50.232;19.208;2023-12-20T10:18:20;23.03;;;11.03;;
64957;SDS011;51486;50.232;19.208;2023-12-20T10:20:46;20.40;;;9.90;;
64957;SDS011;51486;50.232;19.208;2023-12-20T10:23:12;24.50;;;11.23;;
64957;SDS011;51486;50.232;19.208;2023-12-20T10:25:38;26.70;;;10.63;;
64957;SDS011;51486;50.232;19.208;2023-12-20T10:28:14;21.50;;;10.20;;
64957;SDS011;51486;50.232;19.208;2023-12-20T10:30:46;19.20;;;10.00;;
64957;SDS011;51486;50.232;19.208;2023-12-20T10:33:11;20.30;;;10.67;;
64957;SDS011;51486;50.232;19.208;2023-12-20T10:35:39;20.47;;;10.40;;
64957;SDS011;51486;50.232;19.208;2023-12-20T10:38:06;30.73;;;10.23;;
64957;SDS011;51486;50.232;19.208;2023-12-20T10:40:35;23.03;;;11.03;;
64957;SDS011;51486;50.232;19.208;2023-12-20T10:43:02;19.63;;;9.77;;
64957;SDS011;51486;50.232;19.208;2023-12-20T10:45:27;16.53;;;8.60;;
64957;SDS011;51486;50.232;19.208;2023-12-20T10:47:53;19.67;;;8.60;;
64957;SDS011;51486;50.232;19.208;2023-12-20T10:50:19;15.20;;;8.30;;
64957;SDS011;51486;50.232;19.208;2023-12-20T10:52:45;20.87;;;8.97;;
64957;SDS011;51486;50.232;19.208;2023-12-20T10:55:12;18.23;;;8.90;;
64957;SDS011;51486;50.232;19.208;2023-12-20T10:57:37;18.80;;;8.67;;
64957;SDS011;51486;50.232;19.208;2023-12-20T11:00:05;24.90;;;8.30;;
64957;SDS011;51486;50.232;19.208;2023-12-20T11:02:35;17.03;;;7.20;;
64957;SDS011;51486;50.232;19.208;2023-12-20T11:05:06;20.10;;;7.90;;
64957;SDS011;51486;50.232;19.208;2023-12-20T11:07:47;18.40;;;7.63;;
64957;SDS011;51486;50.232;19.208;2023-12-20T11:10:24;16.57;;;8.30;;
64957;SDS011;51486;50.232;19.208;2023-12-20T11:12:54;15.87;;;7.83;;
64957;SDS011;51486;50.232;19.208;2023-12-20T11:15:28;14.17;;;7.40;;
64957;SDS011;51486;50.232;19.208;2023-12-20T11:17:54;14.73;;;7.17;;
64957;SDS011;51486;50.232;19.208;2023-12-20T11:20:22;13.33;;;6.93;;
64957;SDS011;51486;50.232;19.208;2023-12-20T11:23:05;15.80;;;7.67;;
64957;SDS011;51486;50.232;19.208;2023-12-20T11:25:53;12.70;;;7.33;;
64957;SDS011;51486;50.232;19.208;2023-12-20T11:28:20;12.93;;;7.07;;
64957;SDS011;51486;50.232;19.208;2023-12-20T11:30:53;15.63;;;6.73;;
64957;SDS011;51486;50.232;19.208;2023-12-20T11:33:23;12.97;;;7.83;;
64957;SDS011;51486;50.232;19.208;2023-12-20T11:35:50;13.70;;;7.30;;
64957;SDS011;51486;50.232;19.208;2023-12-20T11:38:15;13.93;;;7.70;;
64957;SDS011;51486;50.232;19.208;2023-12-20T11:40:41;17.13;;;7.80;;
64957;SDS011;51486;50.232;19.208;2023-12-20T11:43:08;20.33;;;7.70;;
64957;SDS011;51486;50.232;19.208;2023-12-20T11:45:33;15.57;;;7.90;;
64957;SDS011;51486;50.232;19.208;2023-12-20T11:48:00;17.73;;;7.70;;
64957;SDS011;51486;50.232;19.208;2023-12-20T11:50:27;16.00;;;7.33;;
64957;SDS011;51486;50.232;19.208;2023-12-20T11:52:54;15.00;;;6.93;;
64957;SDS011;51486;50.232;19.208;2023-12-20T11:55:20;14.00;;;7.50;;
64957;SDS011;51486;50.232;19.208;2023-12-20T11:57:46;17.07;;;7.33;;
64957;SDS011;51486;50.232;19.208;2023-12-20T12:00:12;19.73;;;8.50;;
64957;SDS011;51486;50.232;19.208;2023-12-20T12:02:38;13.23;;;7.40;;
64957;SDS011;51486;50.232;19.208;2023-12-20T12:05:04;13.90;;;6.33;;
64957;SDS011;51486;50.232;19.208;2023-12-20T12:07:30;13.10;;;5.87;;
64957;SDS011;51486;50.232;19.208;2023-12-20T12:09:56;10.87;;;5.60;;
64957;SDS011;51486;50.232;19.208;2023-12-20T12:12:22;11.10;;;5.63;;
64957;SDS011;51486;50.232;19.208;2023-12-20T12:14:48;10.30;;;5.83;;
64957;SDS011;51486;50.232;19.208;2023-12-20T12:17:14;12.10;;;5.77;;
64957;SDS011;51486;50.232;19.208;2023-12-20T12:19:40;13.40;;;6.87;;
64957;SDS011;51486;50.232;19.208;2023-12-20T12:24:40;11.00;;;5.80;;
64957;SDS011;51486;50.232;19.208;2023-12-20T12:27:06;18.27;;;5.83;;
64957;SDS011;51486;50.232;19.208;2023-12-20T12:29:32;12.57;;;7.03;;
64957;SDS011;51486;50.232;19.208;2023-12-20T12:31:58;15.13;;;7.27;;
64957;SDS011;51486;50.232;19.208;2023-12-20T12:34:24;11.10;;;5.77;;
64957;SDS011;51486;50.232;19.208;2023-12-20T12:36:52;11.70;;;6.83;;
64957;SDS011;51486;50.232;19.208;2023-12-20T12:39:18;16.17;;;6.90;;
64957;SDS011;51486;50.232;19.208;2023-12-20T12:41:43;10.53;;;6.33;;
64957;SDS011;51486;50.232;19.208;2023-12-20T12:44:09;22.53;;;7.23;;
64957;SDS011;51486;50.232;19.208;2023-12-20T12:46:34;15.23;;;7.50;;
64957;SDS011;51486;50.232;19.208;2023-12-20T12:49:00;17.50;;;7.60;;
64957;SDS011;51486;50.232;19.208;2023-12-20T12:51:25;15.97;;;7.03;;
64957;SDS011;51486;50.232;19.208;2023-12-20T12:53:51;15.53;;;6.30;;
64957;SDS011;51486;50.232;19.208;2023-12-20T12:56:16;16.90;;;7.00;;
64957;SDS011;51486;50.232;19.208;2023-12-20T12:58:42;17.47;;;8.07;;
64957;SDS011;51486;50.232;19.208;2023-12-20T13:01:08;18.77;;;7.57;;
64957;SDS011;51486;50.232;19.208;2023-12-20T13:03:33;17.97;;;7.90;;
64957;SDS011;51486;50.232;19.208;2023-12-20T13:06:00;17.63;;;8.80;;
64957;SDS011;51486;50.232;19.208;2023-12-20T13:08:25;18.67;;;8.10;;
64957;SDS011;51486;50.232;19.208;2023-12-20T13:10:51;15.50;;;7.47;;
64957;SDS011;51486;50.232;19.208;2023-12-20T13:13:16;12.53;;;6.97;;
64957;SDS011;51486;50.232;19.208;2023-12-20T13:15:42;17.03;;;7.73;;
64957;SDS011;51486;50.232;19.208;2023-12-20T13:18:07;18.83;;;8.57;;
64957;SDS011;51486;50.232;19.208;2023-12-20T13:20:33;23.83;;;10.77;;
64957;SDS011;51486;50.232;19.208;2023-12-20T13:22:58;28.57;;;12.73;;
64957;SDS011;51486;50.232;19.208;2023-12-20T13:25:24;27.57;;;12.37;;
64957;SDS011;51486;50.232;19.208;2023-12-20T13:27:50;23.47;;;11.17;;
64957;SDS011;51486;50.232;19.208;2023-12-20T13:30:16;22.13;;;10.10;;
64957;SDS011;51486;50.232;19.208;2023-12-20T13:32:41;24.23;;;10.30;;
64957;SDS011;51486;50.232;19.208;2023-12-20T13:35:07;16.87;;;9.30;;
64957;SDS011;51486;50.232;19.208;2023-12-20T13:37:32;20.70;;;10.17;;
64957;SDS011;51486;50.232;19.208;2023-12-20T13:39:58;24.93;;;10.13;;
64957;SDS011;51486;50.232;19.208;2023-12-20T13:42:23;21.57;;;10.97;;
64957;SDS011;51486;50.232;19.208;2023-12-20T13:44:48;25.40;;;12.50;;
64957;SDS011;51486;50.232;19.208;2023-12-20T13:47:14;29.27;;;11.30;;
64957;SDS011;51486;50.232;19.208;2023-12-20T13:49:39;33.80;;;11.37;;
64957;SDS011;51486;50.232;19.208;2023-12-20T13:52:05;24.70;;;11.23;;
64957;SDS011;51486;50.232;19.208;2023-12-20T13:54:30;20.40;;;11.03;;
64957;SDS011;51486;50.232;19.208;2023-12-20T13:56:55;28.20;;;12.80;;
64957;SDS011;51486;50.232;19.208;2023-12-20T13:59:22;31.83;;;12.83;;
64957;SDS011;51486;50.232;19.208;2023-12-20T14:01:48;19.13;;;10.07;;
64957;SDS011;51486;50.232;19.208;2023-12-20T14:04:15;23.00;;;12.00;;
64957;SDS011;51486;50.232;19.208;2023-12-20T14:06:40;33.30;;;15.17;;
64957;SDS011;51486;50.232;19.208;2023-12-20T14:09:06;39.03;;;16.73;;
64957;SDS011;51486;50.232;19.208;2023-12-20T14:11:31;42.37;;;17.97;;
64957;SDS011;51486;50.232;19.208;2023-12-20T14:13:56;31.53;;;14.97;;
64957;SDS011;51486;50.232;19.208;2023-12-20T14:16:23;29.63;;;14.10;;
64957;SDS011;51486;50.232;19.208;2023-12-20T14:18:49;27.07;;;12.40;;